Terminal Aerodrome Forecast
Issued by NWS

Home | Current Version | Previous Version | Text Only | Print | Product List | Glossary Off
Versions: 1 2 3 4 5 6 7 8 9 10 11 12 13 14 15

314
FTUS43 KMPX 102320
TAFAXN
TAF
KAXN 102320Z 1100/1124 VRB03KT P6SM SCT060 OVC090
     FM111500 18006KT P6SM OVC050
     FM112000 21006KT P6SM OVC025=

USA.gov is the U.S. government's official web portal to all federal, state and local government web resources and services.